createdAt,value
2022-12-06T00:03:17.192Z,102185.19
2022-12-06T00:13:25.479Z,102188.66
2022-12-06T00:16:29.280Z,102032.72
2022-12-06T00:22:35.568Z,102225.66
2022-12-06T00:25:30.613Z,102171.53
2022-12-06T00:37:27.049Z,102039.72
2022-12-06T00:40:31.050Z,102207.72
2022-12-06T00:43:44.590Z,102202.34
2022-12-06T01:00:26.038Z,102003.81
2022-12-06T01:06:55.444Z,102188.28
2022-12-06T01:13:10.534Z,102022.59
2022-12-06T02:00:13.143Z,102188.25
2022-12-06T02:03:26.311Z,102175.03
2022-12-06T02:10:17.753Z,101977.78
2022-12-06T02:20:41.858Z,102172.16
2022-12-06T02:30:47.706Z,102170.13
2022-12-06T03:01:27.048Z,101951.63
2022-12-06T03:04:48.204Z,101976.38
2022-12-06T03:08:07.628Z,102153.56
2022-12-06T03:18:11.063Z,102011.00
2022-12-06T03:24:43.512Z,102099.38
2022-12-06T03:57:01.266Z,102044.81
2022-12-06T04:03:38.376Z,101953.56
2022-12-06T04:06:51.241Z,102029.16
2022-12-06T04:33:57.930Z,102119.47
2022-12-06T04:37:14.879Z,101947.47
2022-12-06T04:40:06.800Z,101913.63
2022-12-06T04:46:56.595Z,102122.34
2022-12-06T05:06:58.873Z,102106.06
2022-12-06T05:16:46.149Z,101907.88
2022-12-06T05:20:04.396Z,102103.56
2022-12-06T05:33:19.241Z,101909.50
2022-12-06T05:36:29.802Z,102100.47
2022-12-06T05:43:05.247Z,101898.34
2022-12-06T05:50:04.832Z,102093.84
2022-12-06T06:20:08.021Z,102096.06
2022-12-06T06:22:56.170Z,102098.94
2022-12-06T06:28:51.805Z,101896.75
2022-12-06T06:34:32.488Z,102102.94
2022-12-06T06:37:25.450Z,102043.84
2022-12-06T06:40:46.208Z,102102.66
2022-12-06T06:43:22.615Z,102094.78
2022-12-06T06:46:43.837Z,102102.78
2022-12-06T07:02:00.144Z,101976.91
2022-12-06T07:04:56.910Z,101945.34
2022-12-06T07:07:48.923Z,102088.66
2022-12-06T07:10:22.358Z,102036.56
2022-12-06T07:16:38.115Z,101999.47
2022-12-06T07:19:16.498Z,102052.00
2022-12-06T07:28:02.880Z,101905.91
2022-12-06T07:30:54.953Z,102024.22
2022-12-06T07:36:24.187Z,102060.63
2022-12-06T07:39:10.149Z,102092.28
2022-12-06T07:45:09.826Z,102093.09
2022-12-06T07:51:02.343Z,101966.25
2022-12-06T07:54:24.165Z,101887.97
2022-12-06T07:57:22.558Z,102066.28
2022-12-06T08:00:20.052Z,102092.34
2022-12-06T08:03:06.891Z,102008.47
2022-12-06T08:05:49.426Z,101894.00
2022-12-06T08:08:28.173Z,101959.66
2022-12-06T08:11:10.253Z,102079.97
2022-12-06T08:14:24.192Z,102008.91
2022-12-06T08:17:27.393Z,102096.03
2022-12-06T08:20:16.949Z,101911.31
2022-12-06T08:22:57.821Z,101955.19
2022-12-06T08:25:37.453Z,102096.09
2022-12-06T08:28:38.239Z,102001.06
2022-12-06T08:31:19.188Z,101906.06
2022-12-06T08:37:03.169Z,102090.38
2022-12-06T08:39:52.106Z,101983.81
2022-12-06T08:42:57.908Z,102080.31
2022-12-06T08:45:56.070Z,101889.63
2022-12-06T08:48:41.275Z,101930.97
2022-12-06T08:51:46.969Z,101878.50
2022-12-06T08:54:38.130Z,102071.94
2022-12-06T08:57:27.608Z,102076.91
2022-12-06T09:00:33.708Z,102075.47
2022-12-06T09:03:39.521Z,102046.34
2022-12-06T09:06:22.339Z,101931.75
2022-12-06T09:08:58.552Z,102090.16
2022-12-06T09:11:58.744Z,102080.28
2022-12-06T09:14:49.884Z,101860.81
2022-12-06T09:17:41.904Z,101905.00
2022-12-06T09:23:43.313Z,101897.22
2022-12-06T09:26:32.596Z,102068.78
2022-12-06T09:29:14.214Z,101989.75
2022-12-06T09:31:51.574Z,101980.03
2022-12-06T09:37:58.888Z,101987.50
2022-12-06T09:41:10.720Z,101963.78
2022-12-06T09:44:02.840Z,101906.84
2022-12-06T09:46:57.543Z,102076.28
2022-12-06T09:50:07.708Z,101889.94
2022-12-06T09:53:21.662Z,102007.81
2022-12-06T09:56:42.864Z,102069.09
2022-12-06T09:59:41.685Z,102082.34
2022-12-06T10:02:55.515Z,102073.47
2022-12-06T10:06:22.113Z,102068.91
2022-12-06T10:09:22.168Z,102061.09
2022-12-06T10:12:12.780Z,102029.28
2022-12-06T10:15:11.510Z,102030.53
2022-12-06T10:18:30.353Z,101966.56
2022-12-06T10:21:16.013Z,101907.41
2022-12-06T10:24:06.193Z,102029.94
2022-12-06T10:26:58.461Z,102033.81
2022-12-06T10:33:12.599Z,101999.16
2022-12-06T10:36:03.687Z,101898.13
2022-12-06T10:39:08.547Z,101863.50
2022-12-06T10:42:11.811Z,101837.31
2022-12-06T10:45:04.769Z,101868.41
2022-12-06T10:48:04.263Z,102024.41
2022-12-06T10:51:01.426Z,101950.00
2022-12-06T10:54:08.025Z,102012.19
2022-12-06T11:02:59.017Z,101987.81
2022-12-06T11:06:28.992Z,102018.28
2022-12-06T11:12:13.292Z,102020.09
2022-12-06T11:14:54.976Z,101896.69
2022-12-06T11:17:35.233Z,101826.41
2022-12-06T11:20:25.847Z,101836.53
2022-12-06T11:23:16.235Z,101843.31
2022-12-06T11:26:25.275Z,101889.03
2022-12-06T11:32:35.770Z,101973.84
2022-12-06T11:35:39.977Z,101913.09
2022-12-06T11:38:36.638Z,101996.03
2022-12-06T11:41:11.534Z,101802.28
2022-12-06T11:44:14.018Z,101854.28
2022-12-06T11:46:59.626Z,101875.03
2022-12-06T11:52:38.937Z,101952.03
2022-12-06T11:59:04.145Z,101989.50
2022-12-06T12:01:58.324Z,101902.47
2022-12-06T12:05:20.676Z,101792.22
2022-12-06T12:08:29.683Z,101978.69
2022-12-06T12:11:45.470Z,101981.59
2022-12-06T12:21:08.569Z,101915.94
2022-12-06T12:27:32.706Z,101827.53
2022-12-06T12:34:41.600Z,101777.59
2022-12-06T12:37:11.306Z,101780.63
2022-12-06T12:40:15.293Z,101859.16
2022-12-06T12:46:34.484Z,101932.78
2022-12-06T12:49:50.625Z,101759.00
2022-12-06T12:59:31.003Z,101912.72
2022-12-06T13:02:52.261Z,101873.25
2022-12-06T13:08:42.959Z,101809.56
2022-12-06T13:11:41.909Z,101737.69
2022-12-06T13:14:19.451Z,101911.16
2022-12-06T13:17:00.745Z,101748.72
2022-12-06T13:22:44.888Z,101723.69
2022-12-06T13:25:29.815Z,101925.06
2022-12-06T13:28:11.850Z,101862.31
2022-12-06T13:31:21.432Z,101904.19
2022-12-06T13:34:00.267Z,101769.69
2022-12-06T13:36:43.946Z,101798.81
2022-12-06T13:39:50.884Z,101897.97
2022-12-06T13:42:43.799Z,101911.22
2022-12-06T13:45:41.809Z,101724.91
2022-12-06T13:48:57.626Z,101903.38
2022-12-06T13:51:51.133Z,101718.34
2022-12-06T13:54:41.195Z,101793.59
2022-12-06T13:57:26.212Z,101862.44
2022-12-06T13:59:53.307Z,101681.34
2022-12-06T14:02:46.865Z,101893.50
2022-12-06T14:08:39.163Z,101690.47
2022-12-06T14:11:33.987Z,101893.94
2022-12-06T14:14:16.388Z,101703.56
2022-12-06T14:16:50.472Z,101842.41
2022-12-06T14:19:23.303Z,101710.94
2022-12-06T14:22:09.773Z,101887.38
2022-12-06T14:24:45.623Z,101706.88
2022-12-06T14:27:16.350Z,101714.88
2022-12-06T14:29:45.152Z,101782.53
2022-12-06T14:32:11.927Z,101730.66
2022-12-06T14:34:38.958Z,101877.72
2022-12-06T14:37:18.459Z,101712.84
2022-12-06T14:40:00.895Z,101799.78
2022-12-06T14:42:38.839Z,101792.34
2022-12-06T14:45:16.652Z,101832.38
2022-12-06T14:47:46.774Z,101754.91
2022-12-06T14:50:32.991Z,101670.72
2022-12-06T14:53:10.244Z,101753.25
2022-12-06T14:55:58.929Z,101680.50
2022-12-06T14:58:28.279Z,101685.00
2022-12-06T15:00:59.880Z,101791.63
2022-12-06T15:03:33.278Z,101667.00
2022-12-06T15:07:05.157Z,101846.16
2022-12-06T15:09:53.501Z,101845.41
2022-12-06T15:12:38.621Z,101632.47
2022-12-06T15:15:45.262Z,101736.91
2022-12-06T15:18:34.588Z,101842.16
2022-12-06T15:27:21.652Z,101820.09
2022-12-06T15:32:49.389Z,101813.19
2022-12-06T15:35:37.970Z,101833.94
2022-12-06T15:38:22.353Z,101652.03
2022-12-06T15:40:59.344Z,101826.94
2022-12-06T15:43:40.432Z,101772.59
2022-12-06T15:50:00.635Z,101728.59
2022-12-06T15:53:00.866Z,101625.94
2022-12-06T15:56:32.013Z,101753.09
2022-12-06T15:59:22.208Z,101754.06
2022-12-06T16:08:50.867Z,101661.31
2022-12-06T16:11:41.838Z,101739.00
2022-12-06T16:14:18.739Z,101713.88
2022-12-06T16:23:15.234Z,101766.69
2022-12-06T16:26:07.924Z,101731.16
2022-12-06T16:28:53.382Z,101677.44
2022-12-06T16:34:49.994Z,101787.00
2022-12-06T16:37:55.706Z,101596.00
2022-12-06T16:41:11.201Z,101711.03
2022-12-06T16:43:38.615Z,101592.06
2022-12-06T16:46:21.282Z,101750.78
2022-12-06T16:48:54.048Z,101763.34
2022-12-06T16:52:01.265Z,101762.19
2022-12-06T17:00:42.467Z,101784.50
2022-12-06T17:03:12.736Z,101740.53
2022-12-06T17:05:57.057Z,101741.16
2022-12-06T17:08:30.291Z,101636.09
2022-12-06T17:11:25.369Z,101684.59
2022-12-06T17:14:23.820Z,101687.88
2022-12-06T17:16:56.793Z,101739.66
2022-12-06T17:19:29.471Z,101705.13
2022-12-06T17:22:04.250Z,101607.72
2022-12-06T17:24:39.089Z,101592.31
2022-12-06T17:27:27.738Z,101785.19
2022-12-06T17:30:17.754Z,101708.94
2022-12-06T17:38:37.522Z,101799.31
2022-12-06T17:41:13.873Z,101672.34
2022-12-06T17:43:41.089Z,101753.59
2022-12-06T17:46:55.335Z,101624.91
2022-12-06T17:50:08.701Z,101673.66
2022-12-06T17:52:41.020Z,101790.44
2022-12-06T17:55:37.538Z,101601.09
2022-12-06T17:58:10.153Z,101641.22
2022-12-06T18:01:04.782Z,101622.31
2022-12-06T18:03:44.636Z,101796.09
2022-12-06T18:06:17.915Z,101745.94
2022-12-06T18:09:07.198Z,101715.69
2022-12-06T18:11:51.838Z,101581.66
2022-12-06T18:14:36.199Z,101770.09
2022-12-06T18:17:34.671Z,101758.13
2022-12-06T18:20:40.580Z,101802.84
2022-12-06T18:23:31.887Z,101810.28
2022-12-06T18:26:46.495Z,101740.13
2022-12-06T18:29:50.050Z,101629.88
2022-12-06T18:32:47.936Z,101807.66
2022-12-06T18:35:33.555Z,101756.19
2022-12-06T18:38:25.188Z,101805.16
2022-12-06T18:41:27.632Z,101815.50
2022-12-06T18:50:15.781Z,101775.34
2022-12-06T18:53:15.051Z,101632.75
2022-12-06T18:55:56.709Z,101644.28
2022-12-06T18:59:11.633Z,101768.06
2022-12-06T19:02:02.974Z,101622.03
2022-12-06T19:06:00.863Z,101735.97
2022-12-06T19:11:46.474Z,101818.78
2022-12-06T19:14:36.105Z,101819.63
2022-12-06T19:17:28.919Z,101821.06
2022-12-06T19:20:12.297Z,101637.72
2022-12-06T19:23:11.039Z,101809.31
2022-12-06T19:25:44.486Z,101717.31
2022-12-06T19:28:37.526Z,101815.66
2022-12-06T19:31:14.592Z,101633.13
2022-12-06T19:33:53.090Z,101643.84
2022-12-06T19:36:54.601Z,101620.38
2022-12-06T19:40:15.758Z,101619.59
2022-12-06T19:43:14.420Z,101596.13
2022-12-06T19:46:15.034Z,101726.13
2022-12-06T19:58:24.550Z,101628.69
2022-12-06T20:01:29.361Z,101706.88
2022-12-06T20:04:41.224Z,101739.81
2022-12-06T20:07:44.358Z,101686.06
2022-12-06T20:14:23.474Z,101609.78
2022-12-06T20:17:41.370Z,101789.59
2022-12-06T20:20:23.147Z,101789.00
2022-12-06T20:23:20.779Z,101789.22
2022-12-06T20:29:20.696Z,101781.81
2022-12-06T20:31:58.169Z,101608.34
2022-12-06T20:35:04.436Z,101712.06
2022-12-06T20:41:15.662Z,101713.53
2022-12-06T20:44:17.592Z,101597.88
2022-12-06T20:53:14.352Z,101693.13
2022-12-06T20:55:53.103Z,101784.34
2022-12-06T21:01:45.052Z,101680.38
2022-12-06T21:04:36.286Z,101788.03
2022-12-06T21:20:13.324Z,101741.06
2022-12-06T21:22:55.110Z,101653.41
2022-12-06T21:25:43.514Z,101783.50
2022-12-06T21:28:54.737Z,101777.13
2022-12-06T21:38:32.255Z,101597.66
2022-12-06T21:41:22.118Z,101582.63
2022-12-06T21:43:59.468Z,101640.03
2022-12-06T21:49:27.081Z,101599.91
2022-12-06T21:52:07.578Z,101601.56
2022-12-06T21:55:03.388Z,101795.28
2022-12-06T21:57:51.273Z,101791.38
2022-12-06T22:00:55.164Z,101704.06
2022-12-06T22:04:33.085Z,101600.28
2022-12-06T22:07:12.096Z,101786.44
2022-12-06T22:09:59.117Z,101797.16
2022-12-06T22:13:01.152Z,101645.78
2022-12-06T22:15:39.326Z,101791.38
2022-12-06T22:18:24.296Z,101717.00
2022-12-06T22:21:11.378Z,101744.00
2022-12-06T22:26:37.948Z,101763.38
2022-12-06T22:29:16.755Z,101620.88
2022-12-06T22:32:15.320Z,101821.25
2022-12-06T22:35:00.491Z,101813.00
2022-12-06T22:37:29.978Z,101635.88
2022-12-06T22:40:05.461Z,101811.16
2022-12-06T22:42:42.611Z,101804.38
2022-12-06T22:45:19.893Z,101758.63
2022-12-06T22:47:56.935Z,101649.28
2022-12-06T22:50:32.724Z,101764.81
2022-12-06T22:53:10.916Z,101749.34
2022-12-06T22:58:59.929Z,101604.22
2022-12-06T23:01:42.747Z,101744.00
2022-12-06T23:04:43.002Z,101599.03
2022-12-06T23:07:21.517Z,101742.34
2022-12-06T23:10:05.603Z,101795.50
2022-12-06T23:12:57.900Z,101719.69
2022-12-06T23:15:39.012Z,101640.56
2022-12-06T23:22:22.012Z,101797.53
2022-12-06T23:25:22.809Z,101580.84
2022-12-06T23:28:16.474Z,101740.69
2022-12-06T23:35:04.090Z,101603.75
2022-12-06T23:37:35.582Z,101788.50
2022-12-06T23:40:14.451Z,101775.50
2022-12-06T23:45:57.508Z,101783.94
2022-12-06T23:48:50.527Z,101588.72
2022-12-06T23:54:55.731Z,101592.66
2022-12-06T23:57:55.443Z,101699.31
